createdAt,value
2022-10-28T00:01:39.594Z,6.78
2022-10-28T00:04:08.855Z,7.18
2022-10-28T00:06:39.171Z,7.10
2022-10-28T00:09:11.363Z,13.75
2022-10-28T00:11:41.738Z,7.75
2022-10-28T00:14:12.933Z,13.65
2022-10-28T00:16:42.436Z,20.00
2022-10-28T00:19:14.284Z,24.98
2022-10-28T00:21:45.554Z,21.02
2022-10-28T00:24:16.235Z,14.85
2022-10-28T00:26:46.228Z,27.77
2022-10-28T00:29:19.051Z,14.10
2022-10-28T00:31:49.389Z,15.32
2022-10-28T00:34:21.306Z,12.85
2022-10-28T00:36:51.259Z,23.45
2022-10-28T00:39:24.521Z,10.73
2022-10-28T00:41:56.919Z,7.97
2022-10-28T00:44:46.155Z,9.18
2022-10-28T00:47:21.040Z,7.85
2022-10-28T00:49:53.629Z,7.20
2022-10-28T00:52:27.847Z,7.85
2022-10-28T00:54:59.385Z,5.85
2022-10-28T00:57:33.440Z,5.70
2022-10-28T01:00:05.692Z,11.85
2022-10-28T01:02:41.110Z,7.13
2022-10-28T01:05:11.534Z,9.70
2022-10-28T01:07:40.800Z,5.93
2022-10-28T01:10:11.114Z,4.38
2022-10-28T01:12:57.045Z,4.38
2022-10-28T01:15:46.460Z,4.68
2022-10-28T01:18:24.363Z,4.50
2022-10-28T01:21:17.131Z,5.35
2022-10-28T01:24:11.825Z,5.45
2022-10-28T01:27:04.792Z,4.85
2022-10-28T01:29:50.298Z,7.05
2022-10-28T01:32:34.651Z,6.97
2022-10-28T01:35:11.212Z,5.13
2022-10-28T01:37:51.498Z,4.63
2022-10-28T01:40:35.721Z,5.10
2022-10-28T01:43:15.179Z,5.30
2022-10-28T01:45:57.865Z,4.50
2022-10-28T01:51:15.911Z,4.72
2022-10-28T01:53:49.469Z,5.00
2022-10-28T01:56:23.382Z,5.32
2022-10-28T01:58:55.226Z,4.97
2022-10-28T02:01:26.284Z,4.20
2022-10-28T02:03:56.438Z,4.20
2022-10-28T02:06:30.132Z,4.82
2022-10-28T02:09:19.346Z,4.57
2022-10-28T02:12:01.165Z,4.63
2022-10-28T02:17:31.088Z,4.43
2022-10-28T02:20:09.264Z,4.93
2022-10-28T02:22:40.434Z,4.70
2022-10-28T02:25:12.585Z,5.43
2022-10-28T02:27:59.784Z,4.50
2022-10-28T02:30:32.130Z,4.45
2022-10-28T02:33:05.166Z,4.90
2022-10-28T02:35:54.069Z,3.90
2022-10-28T02:38:48.975Z,4.15
2022-10-28T02:41:40.476Z,4.10
2022-10-28T02:44:16.017Z,4.25
2022-10-28T02:46:48.822Z,3.30
2022-10-28T02:52:08.606Z,3.55
2022-10-28T02:54:42.980Z,3.80
2022-10-28T02:57:17.625Z,3.42
2022-10-28T02:59:58.881Z,3.55
2022-10-28T03:02:28.885Z,4.13
2022-10-28T03:04:58.510Z,3.70
2022-10-28T03:07:27.843Z,3.70
2022-10-28T03:09:57.137Z,4.63
2022-10-28T03:12:26.481Z,2.92
2022-10-28T03:14:55.754Z,3.20
2022-10-28T03:17:25.080Z,4.07
2022-10-28T03:19:54.282Z,3.55
2022-10-28T03:22:23.521Z,3.92
2022-10-28T03:24:52.818Z,3.78
2022-10-28T03:27:22.089Z,4.10
2022-10-28T03:29:54.298Z,3.60
2022-10-28T03:32:23.711Z,3.10
2022-10-28T03:34:55.984Z,3.47
2022-10-28T03:37:25.348Z,4.10
2022-10-28T03:39:55.599Z,3.67
2022-10-28T03:42:24.933Z,3.42
2022-10-28T03:44:54.427Z,4.20
2022-10-28T03:47:23.699Z,4.55
2022-10-28T03:49:53.136Z,3.22
2022-10-28T03:52:22.880Z,3.97
2022-10-28T03:54:52.156Z,3.47
2022-10-28T03:57:21.442Z,3.75
2022-10-28T03:59:50.643Z,3.20
2022-10-28T04:02:20.393Z,3.47
2022-10-28T04:04:54.051Z,3.17
2022-10-28T04:07:23.371Z,4.20
2022-10-28T04:09:52.902Z,3.35
2022-10-28T04:12:22.204Z,3.15
2022-10-28T04:14:51.906Z,2.88
2022-10-28T04:17:21.265Z,3.30
2022-10-28T04:19:50.561Z,2.90
2022-10-28T04:22:19.955Z,3.53
2022-10-28T04:24:49.226Z,3.70
2022-10-28T04:27:18.429Z,3.03
2022-10-28T04:29:47.654Z,3.60
2022-10-28T04:32:16.945Z,3.00
2022-10-28T04:34:46.170Z,3.88
2022-10-28T04:37:19.699Z,3.20
2022-10-28T04:39:50.191Z,3.63
2022-10-28T04:42:19.490Z,3.72
2022-10-28T04:44:48.827Z,4.68
2022-10-28T04:47:19.113Z,3.88
2022-10-28T04:49:48.478Z,3.83
2022-10-28T04:52:17.988Z,3.60
2022-10-28T04:54:47.320Z,3.25
2022-10-28T04:57:16.663Z,4.10
2022-10-28T04:59:46.062Z,3.28
2022-10-28T05:02:15.568Z,3.70
2022-10-28T05:04:48.378Z,3.65
2022-10-28T05:09:52.900Z,3.72
2022-10-28T05:12:22.434Z,4.10
2022-10-28T05:14:53.143Z,3.78
2022-10-28T05:17:23.255Z,3.72
2022-10-28T05:19:52.644Z,3.70
2022-10-28T05:22:23.191Z,4.10
2022-10-28T05:24:52.546Z,3.65
2022-10-28T05:27:21.904Z,4.20
2022-10-28T05:29:51.220Z,3.65
2022-10-28T05:32:20.608Z,4.15
2022-10-28T05:34:49.940Z,3.47
2022-10-28T05:37:21.704Z,3.55
2022-10-28T05:39:51.186Z,3.80
2022-10-28T05:42:20.601Z,3.90
2022-10-28T05:44:50.020Z,4.00
2022-10-28T05:47:19.395Z,3.75
2022-10-28T05:49:48.776Z,3.55
2022-10-28T05:52:18.186Z,3.92
2022-10-28T05:54:47.912Z,3.47
2022-10-28T05:57:17.260Z,4.70
2022-10-28T05:59:46.782Z,3.97
2022-10-28T06:02:17.444Z,3.60
2022-10-28T06:04:47.118Z,4.20
2022-10-28T06:07:16.469Z,3.70
2022-10-28T06:09:45.826Z,3.72
2022-10-28T06:12:14.046Z,3.80
2022-10-28T06:14:43.384Z,4.10
2022-10-28T06:17:12.920Z,3.92
2022-10-28T06:19:42.259Z,3.92
2022-10-28T06:22:12.541Z,4.05
2022-10-28T06:24:41.940Z,3.92
2022-10-28T06:27:11.776Z,4.32
2022-10-28T06:29:41.118Z,3.97
2022-10-28T06:32:11.309Z,3.90
2022-10-28T06:34:40.669Z,3.80
2022-10-28T06:37:10.901Z,3.90
2022-10-28T06:39:40.407Z,4.10
2022-10-28T06:42:09.729Z,4.13
2022-10-28T06:44:39.122Z,3.70
2022-10-28T06:47:10.156Z,4.05
2022-10-28T06:49:39.465Z,4.28
2022-10-28T06:52:09.338Z,3.88
2022-10-28T06:54:38.725Z,4.22
2022-10-28T06:57:08.097Z,3.80
2022-10-28T06:59:37.756Z,3.97
2022-10-28T07:02:08.648Z,3.95
2022-10-28T07:04:38.286Z,3.50
2022-10-28T07:07:07.721Z,3.50
2022-10-28T07:09:41.080Z,3.90
2022-10-28T07:12:10.990Z,3.95
2022-10-28T07:14:40.442Z,3.70
2022-10-28T07:17:09.985Z,4.25
2022-10-28T07:19:41.778Z,3.85
2022-10-28T07:22:11.261Z,3.63
2022-10-28T07:24:40.625Z,3.67
2022-10-28T07:27:11.196Z,3.90
2022-10-28T07:29:40.640Z,3.60
2022-10-28T07:32:10.129Z,4.25
2022-10-28T07:34:39.561Z,4.60
2022-10-28T07:37:09.008Z,3.60
2022-10-28T07:39:38.431Z,4.05
2022-10-28T07:42:07.820Z,4.30
2022-10-28T07:44:37.260Z,5.28
2022-10-28T07:47:06.906Z,4.60
2022-10-28T07:49:36.415Z,4.30
2022-10-28T07:52:05.871Z,3.80
2022-10-28T07:54:35.864Z,3.90
2022-10-28T07:57:05.254Z,3.55
2022-10-28T07:59:34.643Z,3.55
2022-10-28T08:02:04.080Z,3.95
2022-10-28T08:04:34.699Z,4.15
2022-10-28T08:07:05.030Z,3.38
2022-10-28T08:09:34.601Z,3.53
2022-10-28T08:12:03.982Z,4.10
2022-10-28T08:14:34.364Z,4.20
2022-10-28T08:17:04.474Z,3.58
2022-10-28T08:19:33.871Z,3.97
2022-10-28T08:22:04.492Z,4.20
2022-10-28T08:24:33.863Z,4.55
2022-10-28T08:27:04.765Z,4.55
2022-10-28T08:29:34.192Z,4.50
2022-10-28T08:32:03.658Z,4.82
2022-10-28T08:34:36.886Z,4.90
2022-10-28T08:37:09.004Z,4.30
2022-10-28T08:39:38.408Z,5.75
2022-10-28T08:42:38.010Z,4.10
2022-10-28T08:45:28.577Z,4.03
2022-10-28T08:48:06.614Z,4.10
2022-10-28T08:50:52.213Z,4.40
2022-10-28T08:53:31.100Z,3.97
2022-10-28T08:56:15.712Z,4.20
2022-10-28T08:58:49.851Z,5.13
2022-10-28T09:01:35.384Z,4.25
2022-10-28T09:04:12.775Z,4.28
2022-10-28T09:06:42.186Z,4.45
2022-10-28T09:09:21.983Z,5.15
2022-10-28T09:12:19.061Z,5.47
2022-10-28T09:14:57.774Z,5.22
2022-10-28T09:17:44.784Z,5.18
2022-10-28T09:20:20.249Z,4.45
2022-10-28T09:22:56.090Z,4.18
2022-10-28T09:25:31.325Z,4.78
2022-10-28T09:28:22.781Z,5.10
2022-10-28T09:31:16.574Z,5.47
2022-10-28T09:34:29.119Z,5.40
2022-10-28T09:37:06.694Z,5.10
2022-10-28T09:39:46.011Z,7.00
2022-10-28T09:42:22.036Z,13.23
2022-10-28T09:45:00.237Z,8.98
2022-10-28T09:47:37.585Z,4.68
2022-10-28T09:50:15.650Z,5.82
2022-10-28T09:52:52.510Z,8.25
2022-10-28T09:55:23.669Z,40.70
2022-10-28T09:57:53.306Z,8.55
2022-10-28T10:00:24.160Z,6.70
2022-10-28T10:02:59.236Z,7.57
2022-10-28T10:05:29.022Z,7.20
2022-10-28T10:08:02.855Z,6.18
2022-10-28T10:10:36.570Z,7.60
2022-10-28T10:13:08.514Z,9.18
2022-10-28T10:15:45.332Z,12.35
2022-10-28T10:18:19.823Z,10.90
2022-10-28T10:20:55.004Z,9.90
2022-10-28T10:23:30.737Z,7.97
2022-10-28T10:26:01.981Z,7.30
2022-10-28T10:28:32.010Z,6.53
2022-10-28T10:31:04.697Z,9.23
2022-10-28T10:36:15.470Z,8.88
2022-10-28T10:38:55.783Z,7.28
2022-10-28T10:41:42.306Z,7.05
2022-10-28T10:44:32.039Z,10.40
2022-10-28T10:47:06.211Z,10.63
2022-10-28T10:49:37.518Z,16.08
2022-10-28T10:52:16.911Z,8.13
2022-10-28T10:54:59.049Z,8.43
2022-10-28T10:57:28.888Z,6.97
2022-10-28T10:59:59.432Z,7.43
2022-10-28T11:02:31.522Z,8.57
2022-10-28T11:05:05.309Z,7.70
2022-10-28T11:07:35.894Z,7.97
2022-10-28T11:10:05.865Z,7.30
2022-10-28T11:12:37.107Z,9.20
2022-10-28T11:15:25.883Z,12.98
2022-10-28T11:17:59.712Z,13.80
2022-10-28T11:21:00.866Z,11.38
2022-10-28T11:23:38.348Z,9.40
2022-10-28T11:26:14.917Z,8.52
2022-10-28T11:28:59.629Z,8.93
2022-10-28T11:31:52.427Z,9.55
2022-10-28T11:34:41.635Z,10.77
2022-10-28T11:37:28.624Z,13.50
2022-10-28T11:39:58.730Z,13.75
2022-10-28T11:42:36.161Z,11.80
2022-10-28T11:45:10.707Z,13.15
2022-10-28T11:47:55.217Z,13.23
2022-10-28T11:50:40.790Z,12.25
2022-10-28T11:53:33.630Z,10.98
2022-10-28T11:56:28.164Z,11.32
2022-10-28T11:59:09.597Z,9.73
2022-10-28T12:02:11.361Z,9.77
2022-10-28T12:05:05.248Z,10.93
2022-10-28T12:07:37.437Z,11.40
2022-10-28T12:10:42.373Z,11.10
2022-10-28T12:13:16.128Z,11.45
2022-10-28T12:15:46.599Z,11.55
2022-10-28T12:18:36.902Z,10.75
2022-10-28T12:21:14.153Z,11.98
2022-10-28T12:23:44.860Z,11.85
2022-10-28T12:26:18.590Z,12.05
2022-10-28T12:28:53.520Z,12.27
2022-10-28T12:31:36.213Z,12.85
2022-10-28T12:34:12.099Z,13.38
2022-10-28T12:36:45.796Z,12.50
2022-10-28T12:39:23.086Z,13.23
2022-10-28T12:42:18.618Z,14.10
2022-10-28T12:44:51.349Z,14.38
2022-10-28T12:47:51.258Z,13.52
2022-10-28T12:50:28.924Z,15.00
2022-10-28T12:53:02.712Z,13.23
2022-10-28T12:55:57.837Z,13.75
2022-10-28T12:58:35.578Z,13.95
2022-10-28T13:01:10.629Z,14.00
2022-10-28T13:03:41.163Z,12.75
2022-10-28T13:06:43.251Z,13.25
2022-10-28T13:09:14.416Z,13.10
2022-10-28T13:12:19.212Z,12.68
2022-10-28T13:14:49.433Z,12.48
2022-10-28T13:17:36.466Z,12.43
2022-10-28T13:20:26.749Z,12.90
2022-10-28T13:23:03.245Z,13.07
2022-10-28T13:25:48.907Z,12.40
2022-10-28T13:28:20.778Z,12.75
2022-10-28T13:31:08.627Z,12.93
2022-10-28T13:33:40.356Z,13.57
2022-10-28T13:36:19.063Z,12.88
2022-10-28T13:38:58.323Z,13.38
2022-10-28T13:41:32.975Z,13.77
2022-10-28T13:44:11.615Z,12.75
2022-10-28T13:47:01.962Z,12.32
2022-10-28T13:49:32.835Z,13.73
2022-10-28T13:52:12.785Z,13.38
2022-10-28T13:54:46.412Z,14.25
2022-10-28T13:57:34.079Z,14.85
2022-10-28T14:00:07.509Z,16.33
2022-10-28T14:02:43.642Z,14.88
2022-10-28T14:05:15.885Z,15.02
2022-10-28T14:08:04.929Z,14.52
2022-10-28T14:10:39.164Z,14.55
2022-10-28T14:13:21.940Z,14.88
2022-10-28T14:15:53.617Z,15.02
2022-10-28T14:21:15.238Z,15.57
2022-10-28T14:23:46.391Z,14.40
2022-10-28T14:26:15.666Z,15.32
2022-10-28T14:28:45.791Z,15.10
2022-10-28T14:31:22.197Z,14.57
2022-10-28T14:33:56.834Z,17.17
2022-10-28T14:36:50.465Z,15.52
2022-10-28T14:39:38.366Z,15.77
2022-10-28T14:42:31.152Z,15.77
2022-10-28T14:45:20.404Z,16.40
2022-10-28T14:48:09.522Z,16.38
2022-10-28T14:50:45.393Z,17.13
2022-10-28T14:53:37.459Z,16.00
2022-10-28T14:56:17.960Z,16.63
2022-10-28T14:58:47.634Z,15.25
2022-10-28T15:01:23.379Z,16.52
2022-10-28T15:03:54.829Z,15.93
2022-10-28T15:06:47.898Z,15.65
2022-10-28T15:11:57.195Z,16.02
2022-10-28T15:14:39.702Z,16.75
2022-10-28T15:17:17.824Z,17.88
2022-10-28T15:19:49.549Z,16.80
2022-10-28T15:22:20.738Z,16.95
2022-10-28T15:25:08.238Z,15.35
2022-10-28T15:27:39.697Z,15.82
2022-10-28T15:30:18.299Z,15.63
2022-10-28T15:32:47.895Z,16.05
2022-10-28T15:35:34.573Z,17.98
2022-10-28T15:38:06.479Z,16.58
2022-10-28T15:40:37.048Z,18.03
2022-10-28T15:43:08.969Z,17.00
2022-10-28T15:45:42.393Z,17.03
2022-10-28T15:48:16.238Z,16.67
2022-10-28T15:50:45.465Z,16.08
2022-10-28T15:53:24.221Z,16.85
2022-10-28T15:56:13.197Z,16.92
2022-10-28T15:58:44.866Z,18.00
2022-10-28T16:01:39.818Z,18.02
2022-10-28T16:04:32.865Z,17.05
2022-10-28T16:07:09.636Z,17.52
2022-10-28T16:09:45.164Z,17.17
2022-10-28T16:12:18.297Z,16.92
2022-10-28T16:14:56.809Z,18.83
2022-10-28T16:17:29.118Z,16.30
2022-10-28T16:20:04.387Z,17.58
2022-10-28T16:22:37.466Z,15.10
2022-10-28T16:25:15.698Z,16.85
2022-10-28T16:27:45.627Z,16.08
2022-10-28T16:30:15.600Z,15.25
2022-10-28T16:32:53.216Z,14.60
2022-10-28T16:35:25.615Z,14.52
2022-10-28T16:37:56.004Z,14.65
2022-10-28T16:40:49.566Z,14.70
2022-10-28T16:43:21.087Z,15.38
2022-10-28T16:45:51.789Z,13.77
2022-10-28T16:48:22.153Z,12.60
2022-10-28T16:51:02.691Z,13.15
2022-10-28T16:53:32.023Z,13.20
2022-10-28T16:56:01.666Z,12.27
2022-10-28T16:58:31.654Z,12.77
2022-10-28T17:01:19.007Z,11.68
2022-10-28T17:03:48.498Z,11.45
2022-10-28T17:06:17.785Z,12.07
2022-10-28T17:09:02.498Z,10.70
2022-10-28T17:11:33.027Z,10.95
2022-10-28T17:14:02.271Z,11.02
2022-10-28T17:16:31.562Z,10.88
2022-10-28T17:19:00.800Z,10.82
2022-10-28T17:21:30.026Z,10.88
2022-10-28T17:23:59.533Z,11.15
2022-10-28T17:26:28.782Z,10.85
2022-10-28T17:28:58.031Z,11.13
2022-10-28T17:31:27.386Z,10.85
2022-10-28T17:33:57.207Z,10.52
2022-10-28T17:36:26.478Z,11.93
2022-10-28T17:38:56.577Z,10.68
2022-10-28T17:41:25.835Z,11.07
2022-10-28T17:43:56.008Z,11.02
2022-10-28T17:46:25.363Z,10.70
2022-10-28T17:48:54.925Z,10.25
2022-10-28T17:51:26.419Z,10.52
2022-10-28T17:53:57.158Z,10.10
2022-10-28T17:56:26.427Z,10.10
2022-10-28T17:58:56.111Z,9.77
2022-10-28T18:01:25.927Z,10.00
2022-10-28T18:03:55.593Z,10.18
2022-10-28T18:06:24.874Z,10.35
2022-10-28T18:08:54.565Z,10.13
2022-10-28T18:11:24.372Z,10.95
2022-10-28T18:13:55.022Z,10.85
2022-10-28T18:16:26.730Z,10.57
2022-10-28T18:18:56.966Z,10.52
2022-10-28T18:21:26.932Z,10.57
2022-10-28T18:23:58.509Z,9.90
2022-10-28T18:26:27.733Z,10.82
2022-10-28T18:28:57.039Z,10.70
2022-10-28T18:31:26.405Z,10.43
2022-10-28T18:33:55.789Z,10.82
2022-10-28T18:36:26.077Z,10.50
2022-10-28T18:38:55.578Z,10.25
2022-10-28T18:41:27.729Z,10.15
2022-10-28T18:43:58.509Z,11.00
2022-10-28T18:46:29.074Z,10.45
2022-10-28T18:51:30.031Z,11.20
2022-10-28T18:53:59.939Z,10.98
2022-10-28T18:56:30.766Z,10.70
2022-10-28T18:59:00.742Z,11.18
2022-10-28T19:01:31.465Z,11.55
2022-10-28T19:04:03.497Z,11.30
2022-10-28T19:06:34.322Z,11.40
2022-10-28T19:09:05.450Z,10.95
2022-10-28T19:11:35.818Z,9.95
2022-10-28T19:14:07.727Z,10.82
2022-10-28T19:16:37.603Z,10.00
2022-10-28T19:19:07.617Z,11.15
2022-10-28T19:21:37.939Z,11.10
2022-10-28T19:24:07.557Z,11.23
2022-10-28T19:26:37.212Z,10.27
2022-10-28T19:29:06.957Z,11.35
2022-10-28T19:31:40.128Z,11.45
2022-10-28T19:34:09.380Z,10.63
2022-10-28T19:36:40.120Z,9.95
2022-10-28T19:39:09.375Z,10.68
2022-10-28T19:41:38.582Z,11.95
2022-10-28T19:44:07.960Z,10.10
2022-10-28T19:46:38.319Z,11.07
2022-10-28T19:49:08.879Z,11.00
2022-10-28T19:51:41.474Z,12.15
2022-10-28T19:54:13.903Z,11.63
2022-10-28T19:56:46.517Z,11.23
2022-10-28T19:59:15.916Z,11.27
2022-10-28T20:01:45.401Z,11.10
2022-10-28T20:04:15.779Z,10.75
2022-10-28T20:06:45.329Z,10.77
2022-10-28T20:09:14.672Z,10.90
2022-10-28T20:11:44.068Z,11.15
2022-10-28T20:14:14.406Z,11.52
2022-10-28T20:16:45.116Z,11.18
2022-10-28T20:19:14.497Z,10.98
2022-10-28T20:21:45.483Z,10.80
2022-10-28T20:24:14.738Z,11.10
2022-10-28T20:26:43.948Z,11.07
2022-10-28T20:29:13.212Z,10.88
2022-10-28T20:31:42.600Z,10.32
2022-10-28T20:34:11.811Z,11.25
2022-10-28T20:36:47.736Z,10.93
2022-10-28T20:39:19.083Z,11.23
2022-10-28T20:41:50.091Z,10.32
2022-10-28T20:44:19.629Z,10.73
2022-10-28T20:46:49.320Z,10.45
2022-10-28T20:49:18.783Z,11.07
2022-10-28T20:51:48.252Z,9.85
2022-10-28T20:54:17.537Z,10.82
2022-10-28T20:56:46.802Z,11.27
2022-10-28T20:59:16.071Z,11.52
2022-10-28T21:01:45.476Z,11.68
2022-10-28T21:04:14.954Z,12.02
2022-10-28T21:06:44.229Z,11.52
2022-10-28T21:09:13.550Z,13.13
2022-10-28T21:11:43.873Z,11.25
2022-10-28T21:14:13.206Z,11.38
2022-10-28T21:16:42.858Z,10.93
2022-10-28T21:19:12.114Z,11.50
2022-10-28T21:21:41.335Z,11.82
2022-10-28T21:24:11.365Z,10.80
2022-10-28T21:26:40.527Z,10.95
2022-10-28T21:29:09.717Z,11.48
2022-10-28T21:31:39.007Z,11.13
2022-10-28T21:34:08.722Z,11.55
2022-10-28T21:36:38.011Z,11.40
2022-10-28T21:39:07.238Z,11.00
2022-10-28T21:41:36.421Z,11.38
2022-10-28T21:44:07.702Z,11.80
2022-10-28T21:46:37.311Z,11.48
2022-10-28T21:49:06.533Z,11.90
2022-10-28T21:51:35.759Z,12.57
2022-10-28T21:54:04.971Z,11.00
2022-10-28T21:56:34.282Z,12.05
2022-10-28T21:59:12.442Z,12.52
2022-10-28T22:01:42.071Z,15.43
2022-10-28T22:04:11.406Z,14.45
2022-10-28T22:06:40.680Z,14.23
2022-10-28T22:09:09.976Z,12.88
2022-10-28T22:11:39.220Z,12.82
2022-10-28T22:14:08.599Z,12.88
2022-10-28T22:16:38.113Z,11.95
2022-10-28T22:19:09.637Z,11.73
2022-10-28T22:21:40.663Z,12.32
2022-10-28T22:24:10.366Z,13.02
2022-10-28T22:26:39.750Z,11.35
2022-10-28T22:29:08.993Z,12.77
2022-10-28T22:31:38.256Z,11.80
2022-10-28T22:34:07.555Z,14.07
2022-10-28T22:36:36.799Z,13.15
2022-10-28T22:39:06.131Z,12.52
2022-10-28T22:41:35.426Z,12.60
2022-10-28T22:44:06.110Z,12.52
2022-10-28T22:46:37.926Z,11.50
2022-10-28T22:49:07.144Z,12.65
2022-10-28T22:51:36.731Z,11.43
2022-10-28T22:54:06.207Z,12.70
2022-10-28T22:56:35.819Z,12.15
2022-10-28T22:59:05.202Z,12.75
2022-10-28T23:01:35.180Z,12.60
2022-10-28T23:04:04.526Z,11.48
2022-10-28T23:06:33.726Z,13.00
2022-10-28T23:09:03.054Z,14.68
2022-10-28T23:11:32.327Z,12.60
2022-10-28T23:14:01.516Z,13.60
2022-10-28T23:16:30.764Z,13.25
2022-10-28T23:19:02.834Z,13.60
2022-10-28T23:21:32.171Z,13.83
2022-10-28T23:24:02.534Z,12.85
2022-10-28T23:26:32.158Z,14.70
2022-10-28T23:29:02.268Z,14.90
2022-10-28T23:31:31.656Z,15.20
2022-10-28T23:34:01.545Z,14.68
2022-10-28T23:36:30.802Z,14.68
2022-10-28T23:39:00.059Z,15.50
2022-10-28T23:41:29.345Z,18.30
2022-10-28T23:44:00.850Z,19.30
2022-10-28T23:46:35.037Z,25.05
2022-10-28T23:49:06.718Z,31.05
2022-10-28T23:51:36.086Z,22.92
2022-10-28T23:54:05.813Z,19.15
2022-10-28T23:56:35.036Z,16.88
2022-10-28T23:59:04.276Z,15.80
